メインページ
METAR-TAF:

METAR-TAF

空港 :

ラガーディア空港

ニューヨーク / ラガーディア, ニューヨーク, アメリカ合衆国

緯度: 40-46-45N, 経度: 073-52-48W, 海抜: 6m

現時点の気象観測

当レポートは32分前の13:51(UTC)に作成
北東の風 6kt
気温 24°C
湿度 69%
気圧 1021 hPa
視程: 16.1km
高度2000ftの雲はほとんどない
高度25000ftの雲は散在している

METAR: KLGA 201351Z 04006KT 10SM FEW020 SCT250 24/18 A3016 RMK AO2 SLP212 T02440178 $

時間: 10:23 (14:23 UTC)

予報

当レポートは54分前の13:29(UTC)に作成
予報は20日の 13時(UTC)から 21日の 18時(UTC)まで有効
北東の風 6kt
視程: 10km
晴天
20日の 1500時(UTC)から
南東の風 6kt
視程: 10km
晴天
20日の 1900時(UTC)から
南/南東の風 11kt
視程: 10km
高度25000ftの雲はほとんどない
21日の 0000時(UTC)から
南/南東の風 7kt
視程: 10km
高度25000ftの雲は散在している
21日の 0700時(UTC)から
の風 6kt
視程: 10km
高度2000ftの雲はほとんどない
高度25000ftの千切れ雲あり
21日の 1500時(UTC)から
の風 13kt
視程: 10km
高度2000ftの雲はほとんどない
高度20000ftの千切れ雲あり

TAF: KLGA 201329Z 2013/2118 05006KT P6SM SKC FM201500 13006KT P6SM SKC FM201900 16011KT P6SM FEW250 FM210000 16007KT P6SM SCT250 FM210700 10006KT P6SM FEW020 BKN250 FM211500 09013KT P6SM FEW020 BKN200

4,000以上の空港の気象観測と天気予報(METAR報とTAF報)

利用可能な観測所は地図上に黄色い丸と赤い丸で示す。

丸の上にカーソルを重ねると観測所名を参照できる。

次にクリックすると気象観測と天気予報を参照できる。

マップの切り替え:黒色「×」印の緑ボタンをクリックして拡大、「-」印の緑ボタンをクリックして縮小、緑色の三角印をクリックして隣りの地図に切り替え


METAR-TAF: